sensor_id;sensor_type;location;lat;lon;timestamp;P1;durP1;ratioP1;P2;durP2;ratioP2
51664;SDS011;37751;52.408;12.536;2022-10-29T00:00:53;14.05;;;4.05;;
51664;SDS011;37751;52.408;12.536;2022-10-29T00:03:22;13.10;;;4.60;;
51664;SDS011;37751;52.408;12.536;2022-10-29T00:05:54;16.85;;;5.50;;
51664;SDS011;37751;52.408;12.536;2022-10-29T00:08:25;20.85;;;5.70;;
51664;SDS011;37751;52.408;12.536;2022-10-29T00:10:54;23.13;;;6.57;;
51664;SDS011;37751;52.408;12.536;2022-10-29T00:13:21;26.00;;;6.03;;
51664;SDS011;37751;52.408;12.536;2022-10-29T00:15:47;21.20;;;5.65;;
51664;SDS011;37751;52.408;12.536;2022-10-29T00:18:14;11.10;;;3.95;;
51664;SDS011;37751;52.408;12.536;2022-10-29T00:20:40;21.48;;;4.43;;
51664;SDS011;37751;52.408;12.536;2022-10-29T00:23:07;23.55;;;4.80;;
51664;SDS011;37751;52.408;12.536;2022-10-29T00:25:33;22.45;;;4.93;;
51664;SDS011;37751;52.408;12.536;2022-10-29T00:28:00;16.13;;;4.18;;
51664;SDS011;37751;52.408;12.536;2022-10-29T00:30:27;19.25;;;4.07;;
51664;SDS011;37751;52.408;12.536;2022-10-29T00:32:53;17.60;;;4.80;;
51664;SDS011;37751;52.408;12.536;2022-10-29T00:35:21;25.33;;;7.25;;
51664;SDS011;37751;52.408;12.536;2022-10-29T00:37:47;26.60;;;7.22;;
51664;SDS011;37751;52.408;12.536;2022-10-29T00:40:14;21.30;;;7.22;;
51664;SDS011;37751;52.408;12.536;2022-10-29T00:42:40;34.00;;;7.22;;
51664;SDS011;37751;52.408;12.536;2022-10-29T00:45:11;26.13;;;6.78;;
51664;SDS011;37751;52.408;12.536;2022-10-29T00:47:46;19.25;;;6.15;;
51664;SDS011;37751;52.408;12.536;2022-10-29T00:50:17;26.52;;;6.55;;
51664;SDS011;37751;52.408;12.536;2022-10-29T00:52:48;22.58;;;5.72;;
51664;SDS011;37751;52.408;12.536;2022-10-29T00:55:15;19.88;;;5.40;;
51664;SDS011;37751;52.408;12.536;2022-10-29T00:57:46;24.67;;;6.00;;
51664;SDS011;37751;52.408;12.536;2022-10-29T01:00:17;18.13;;;5.97;;
51664;SDS011;37751;52.408;12.536;2022-10-29T01:02:45;17.52;;;5.97;;
51664;SDS011;37751;52.408;12.536;2022-10-29T01:05:13;27.17;;;6.70;;
51664;SDS011;37751;52.408;12.536;2022-10-29T01:07:45;21.95;;;6.65;;
51664;SDS011;37751;52.408;12.536;2022-10-29T01:10:12;23.85;;;6.50;;
51664;SDS011;37751;52.408;12.536;2022-10-29T01:19:25;24.15;;;7.63;;
51664;SDS011;37751;52.408;12.536;2022-10-29T01:22:24;19.40;;;7.35;;
51664;SDS011;37751;52.408;12.536;2022-10-29T01:25:16;18.60;;;7.07;;
51664;SDS011;37751;52.408;12.536;2022-10-29T01:36:28;25.38;;;6.10;;
51664;SDS011;37751;52.408;12.536;2022-10-29T01:42:08;15.60;;;5.38;;
51664;SDS011;37751;52.408;12.536;2022-10-29T01:44:45;16.67;;;6.13;;
51664;SDS011;37751;52.408;12.536;2022-10-29T01:47:27;19.83;;;6.18;;
51664;SDS011;37751;52.408;12.536;2022-10-29T01:50:01;23.02;;;5.97;;
51664;SDS011;37751;52.408;12.536;2022-10-29T01:52:33;17.80;;;5.45;;
51664;SDS011;37751;52.408;12.536;2022-10-29T01:55:02;15.63;;;5.03;;
51664;SDS011;37751;52.408;12.536;2022-10-29T01:57:33;26.13;;;6.40;;
51664;SDS011;37751;52.408;12.536;2022-10-29T02:00:06;24.25;;;6.25;;
51664;SDS011;37751;52.408;12.536;2022-10-29T02:06:01;23.15;;;6.20;;
51664;SDS011;37751;52.408;12.536;2022-10-29T02:11:33;24.13;;;6.05;;
51664;SDS011;37751;52.408;12.536;2022-10-29T02:14:22;27.08;;;6.65;;
51664;SDS011;37751;52.408;12.536;2022-10-29T02:16:58;21.65;;;5.38;;
51664;SDS011;37751;52.408;12.536;2022-10-29T02:19:30;20.80;;;5.15;;
51664;SDS011;37751;52.408;12.536;2022-10-29T02:21:57;15.25;;;5.28;;
51664;SDS011;37751;52.408;12.536;2022-10-29T02:24:24;15.85;;;5.53;;
51664;SDS011;37751;52.408;12.536;2022-10-29T02:26:51;22.73;;;5.90;;
51664;SDS011;37751;52.408;12.536;2022-10-29T02:29:18;21.55;;;5.72;;
51664;SDS011;37751;52.408;12.536;2022-10-29T02:31:45;19.60;;;6.28;;
51664;SDS011;37751;52.408;12.536;2022-10-29T02:34:11;19.77;;;6.22;;
51664;SDS011;37751;52.408;12.536;2022-10-29T02:36:38;21.08;;;7.38;;
51664;SDS011;37751;52.408;12.536;2022-10-29T02:39:04;29.73;;;6.15;;
51664;SDS011;37751;52.408;12.536;2022-10-29T02:41:31;17.90;;;5.43;;
51664;SDS011;37751;52.408;12.536;2022-10-29T02:43:58;14.20;;;5.70;;
51664;SDS011;37751;52.408;12.536;2022-10-29T02:46:24;16.77;;;5.57;;
51664;SDS011;37751;52.408;12.536;2022-10-29T02:48:51;24.00;;;6.65;;
51664;SDS011;37751;52.408;12.536;2022-10-29T02:51:17;20.85;;;5.10;;
51664;SDS011;37751;52.408;12.536;2022-10-29T02:53:44;19.20;;;6.25;;
51664;SDS011;37751;52.408;12.536;2022-10-29T02:56:11;24.67;;;6.72;;
51664;SDS011;37751;52.408;12.536;2022-10-29T02:58:37;20.70;;;5.35;;
51664;SDS011;37751;52.408;12.536;2022-10-29T03:01:04;27.38;;;7.80;;
51664;SDS011;37751;52.408;12.536;2022-10-29T03:03:32;26.75;;;9.60;;
51664;SDS011;37751;52.408;12.536;2022-10-29T03:05:58;25.23;;;8.90;;
51664;SDS011;37751;52.408;12.536;2022-10-29T03:08:25;25.48;;;8.43;;
51664;SDS011;37751;52.408;12.536;2022-10-29T03:10:53;28.20;;;9.07;;
51664;SDS011;37751;52.408;12.536;2022-10-29T03:13:20;30.33;;;8.80;;
51664;SDS011;37751;52.408;12.536;2022-10-29T03:15:47;27.63;;;6.07;;
51664;SDS011;37751;52.408;12.536;2022-10-29T03:18:13;18.25;;;6.05;;
51664;SDS011;37751;52.408;12.536;2022-10-29T03:20:41;27.17;;;7.00;;
51664;SDS011;37751;52.408;12.536;2022-10-29T03:23:08;18.23;;;6.68;;
51664;SDS011;37751;52.408;12.536;2022-10-29T03:25:35;17.02;;;6.85;;
51664;SDS011;37751;52.408;12.536;2022-10-29T03:28:01;18.27;;;6.18;;
51664;SDS011;37751;52.408;12.536;2022-10-29T03:30:28;16.13;;;6.55;;
51664;SDS011;37751;52.408;12.536;2022-10-29T03:32:54;26.00;;;7.93;;
51664;SDS011;37751;52.408;12.536;2022-10-29T03:35:21;24.15;;;7.82;;
51664;SDS011;37751;52.408;12.536;2022-10-29T03:37:49;27.23;;;10.35;;
51664;SDS011;37751;52.408;12.536;2022-10-29T03:40:16;23.60;;;9.57;;
51664;SDS011;37751;52.408;12.536;2022-10-29T03:42:44;28.40;;;8.07;;
51664;SDS011;37751;52.408;12.536;2022-10-29T03:45:11;26.13;;;7.13;;
51664;SDS011;37751;52.408;12.536;2022-10-29T03:47:39;30.67;;;5.70;;
51664;SDS011;37751;52.408;12.536;2022-10-29T03:50:06;22.55;;;6.65;;
51664;SDS011;37751;52.408;12.536;2022-10-29T03:52:33;24.50;;;5.78;;
51664;SDS011;37751;52.408;12.536;2022-10-29T03:55:00;17.35;;;6.13;;
51664;SDS011;37751;52.408;12.536;2022-10-29T03:57:26;18.05;;;5.68;;
51664;SDS011;37751;52.408;12.536;2022-10-29T03:59:53;27.77;;;6.22;;
51664;SDS011;37751;52.408;12.536;2022-10-29T04:02:21;16.17;;;5.90;;
51664;SDS011;37751;52.408;12.536;2022-10-29T04:04:48;22.17;;;6.30;;
51664;SDS011;37751;52.408;12.536;2022-10-29T04:07:14;19.23;;;5.80;;
51664;SDS011;37751;52.408;12.536;2022-10-29T04:09:41;17.20;;;6.47;;
51664;SDS011;37751;52.408;12.536;2022-10-29T04:12:08;22.27;;;6.88;;
51664;SDS011;37751;52.408;12.536;2022-10-29T04:14:34;29.98;;;6.50;;
51664;SDS011;37751;52.408;12.536;2022-10-29T04:17:09;34.13;;;6.35;;
51664;SDS011;37751;52.408;12.536;2022-10-29T04:19:37;22.05;;;6.15;;
51664;SDS011;37751;52.408;12.536;2022-10-29T04:22:03;25.60;;;5.80;;
51664;SDS011;37751;52.408;12.536;2022-10-29T04:24:50;19.88;;;5.97;;
51664;SDS011;37751;52.408;12.536;2022-10-29T04:27:37;20.52;;;5.80;;
51664;SDS011;37751;52.408;12.536;2022-10-29T04:30:24;13.93;;;5.88;;
51664;SDS011;37751;52.408;12.536;2022-10-29T04:32:54;25.65;;;7.28;;
51664;SDS011;37751;52.408;12.536;2022-10-29T04:35:23;20.52;;;7.10;;
51664;SDS011;37751;52.408;12.536;2022-10-29T04:37:51;24.70;;;7.68;;
51664;SDS011;37751;52.408;12.536;2022-10-29T04:40:23;19.27;;;7.20;;
51664;SDS011;37751;52.408;12.536;2022-10-29T04:42:50;19.98;;;5.50;;
51664;SDS011;37751;52.408;12.536;2022-10-29T04:45:16;18.20;;;6.53;;
51664;SDS011;37751;52.408;12.536;2022-10-29T04:47:43;21.33;;;6.03;;
51664;SDS011;37751;52.408;12.536;2022-10-29T04:50:10;25.58;;;6.75;;
51664;SDS011;37751;52.408;12.536;2022-10-29T04:52:37;28.58;;;7.55;;
51664;SDS011;37751;52.408;12.536;2022-10-29T04:55:03;19.15;;;5.25;;
51664;SDS011;37751;52.408;12.536;2022-10-29T04:57:30;18.98;;;5.60;;
51664;SDS011;37751;52.408;12.536;2022-10-29T04:59:57;21.38;;;5.88;;
51664;SDS011;37751;52.408;12.536;2022-10-29T05:02:23;23.15;;;6.97;;
51664;SDS011;37751;52.408;12.536;2022-10-29T05:04:50;23.42;;;6.57;;
51664;SDS011;37751;52.408;12.536;2022-10-29T05:07:16;22.65;;;5.50;;
51664;SDS011;37751;52.408;12.536;2022-10-29T05:09:43;17.33;;;5.95;;
51664;SDS011;37751;52.408;12.536;2022-10-29T05:12:09;15.70;;;5.30;;
51664;SDS011;37751;52.408;12.536;2022-10-29T05:14:36;18.13;;;5.53;;
51664;SDS011;37751;52.408;12.536;2022-10-29T05:17:03;16.75;;;6.53;;
51664;SDS011;37751;52.408;12.536;2022-10-29T05:19:29;24.40;;;6.05;;
51664;SDS011;37751;52.408;12.536;2022-10-29T05:21:56;24.00;;;6.68;;
51664;SDS011;37751;52.408;12.536;2022-10-29T05:24:22;24.77;;;7.72;;
51664;SDS011;37751;52.408;12.536;2022-10-29T05:26:49;24.77;;;7.55;;
51664;SDS011;37751;52.408;12.536;2022-10-29T05:29:16;22.23;;;7.15;;
51664;SDS011;37751;52.408;12.536;2022-10-29T05:31:42;21.65;;;7.22;;
51664;SDS011;37751;52.408;12.536;2022-10-29T05:34:09;19.23;;;7.03;;
51664;SDS011;37751;52.408;12.536;2022-10-29T05:36:35;21.88;;;6.97;;
51664;SDS011;37751;52.408;12.536;2022-10-29T05:39:02;15.90;;;6.75;;
51664;SDS011;37751;52.408;12.536;2022-10-29T05:41:28;19.17;;;6.03;;
51664;SDS011;37751;52.408;12.536;2022-10-29T05:43:55;16.50;;;6.38;;
51664;SDS011;37751;52.408;12.536;2022-10-29T05:46:22;20.60;;;6.43;;
51664;SDS011;37751;52.408;12.536;2022-10-29T05:48:48;16.05;;;5.55;;
51664;SDS011;37751;52.408;12.536;2022-10-29T05:51:15;23.90;;;6.75;;
51664;SDS011;37751;52.408;12.536;2022-10-29T05:53:41;20.65;;;6.13;;
51664;SDS011;37751;52.408;12.536;2022-10-29T05:56:08;22.98;;;6.53;;
51664;SDS011;37751;52.408;12.536;2022-10-29T05:58:35;20.85;;;6.55;;
51664;SDS011;37751;52.408;12.536;2022-10-29T06:01:05;19.80;;;6.43;;
51664;SDS011;37751;52.408;12.536;2022-10-29T06:03:36;20.08;;;6.28;;
51664;SDS011;37751;52.408;12.536;2022-10-29T06:06:03;22.38;;;7.85;;
51664;SDS011;37751;52.408;12.536;2022-10-29T06:08:30;24.48;;;6.22;;
51664;SDS011;37751;52.408;12.536;2022-10-29T06:10:59;19.00;;;5.65;;
51664;SDS011;37751;52.408;12.536;2022-10-29T06:13:27;19.80;;;6.07;;
51664;SDS011;37751;52.408;12.536;2022-10-29T06:15:55;18.98;;;4.95;;
51664;SDS011;37751;52.408;12.536;2022-10-29T06:18:27;18.30;;;6.85;;
51664;SDS011;37751;52.408;12.536;2022-10-29T06:20:56;23.60;;;6.13;;
51664;SDS011;37751;52.408;12.536;2022-10-29T06:23:25;22.20;;;6.30;;
51664;SDS011;37751;52.408;12.536;2022-10-29T06:25:52;25.15;;;6.55;;
51664;SDS011;37751;52.408;12.536;2022-10-29T06:28:19;15.38;;;5.90;;
51664;SDS011;37751;52.408;12.536;2022-10-29T06:30:49;23.15;;;6.38;;
51664;SDS011;37751;52.408;12.536;2022-10-29T06:33:17;23.92;;;7.38;;
51664;SDS011;37751;52.408;12.536;2022-10-29T06:35:44;20.40;;;5.88;;
51664;SDS011;37751;52.408;12.536;2022-10-29T06:38:12;23.05;;;7.07;;
51664;SDS011;37751;52.408;12.536;2022-10-29T06:40:39;29.38;;;9.63;;
51664;SDS011;37751;52.408;12.536;2022-10-29T06:43:10;20.60;;;5.65;;
51664;SDS011;37751;52.408;12.536;2022-10-29T06:45:37;23.67;;;7.32;;
51664;SDS011;37751;52.408;12.536;2022-10-29T06:48:05;21.10;;;6.97;;
51664;SDS011;37751;52.408;12.536;2022-10-29T06:50:32;18.40;;;6.47;;
51664;SDS011;37751;52.408;12.536;2022-10-29T06:53:00;23.25;;;5.95;;
51664;SDS011;37751;52.408;12.536;2022-10-29T06:55:34;23.33;;;6.43;;
51664;SDS011;37751;52.408;12.536;2022-10-29T06:58:01;13.05;;;5.70;;
51664;SDS011;37751;52.408;12.536;2022-10-29T07:00:39;25.42;;;5.55;;
51664;SDS011;37751;52.408;12.536;2022-10-29T07:03:13;26.40;;;5.60;;
51664;SDS011;37751;52.408;12.536;2022-10-29T07:05:44;16.23;;;5.68;;
51664;SDS011;37751;52.408;12.536;2022-10-29T07:08:12;27.25;;;5.60;;
51664;SDS011;37751;52.408;12.536;2022-10-29T07:10:38;17.58;;;5.03;;
51664;SDS011;37751;52.408;12.536;2022-10-29T07:13:05;20.80;;;5.50;;
51664;SDS011;37751;52.408;12.536;2022-10-29T07:15:32;17.60;;;5.80;;
51664;SDS011;37751;52.408;12.536;2022-10-29T07:18:03;17.25;;;5.32;;
51664;SDS011;37751;52.408;12.536;2022-10-29T07:20:33;21.50;;;5.35;;
51664;SDS011;37751;52.408;12.536;2022-10-29T07:23:03;17.58;;;6.03;;
51664;SDS011;37751;52.408;12.536;2022-10-29T07:25:30;20.10;;;6.22;;
51664;SDS011;37751;52.408;12.536;2022-10-29T07:28:08;15.05;;;5.55;;
51664;SDS011;37751;52.408;12.536;2022-10-29T07:30:39;20.08;;;5.15;;
51664;SDS011;37751;52.408;12.536;2022-10-29T07:33:06;17.42;;;5.13;;
51664;SDS011;37751;52.408;12.536;2022-10-29T07:35:33;17.63;;;6.15;;
51664;SDS011;37751;52.408;12.536;2022-10-29T07:38:03;16.35;;;5.38;;
51664;SDS011;37751;52.408;12.536;2022-10-29T07:40:37;18.88;;;6.20;;
51664;SDS011;37751;52.408;12.536;2022-10-29T07:43:05;18.23;;;6.72;;
51664;SDS011;37751;52.408;12.536;2022-10-29T07:45:32;17.58;;;6.55;;
51664;SDS011;37751;52.408;12.536;2022-10-29T07:47:59;20.48;;;6.32;;
51664;SDS011;37751;52.408;12.536;2022-10-29T07:50:28;20.15;;;6.30;;
51664;SDS011;37751;52.408;12.536;2022-10-29T07:52:59;22.73;;;5.97;;
51664;SDS011;37751;52.408;12.536;2022-10-29T07:55:27;20.60;;;5.70;;
51664;SDS011;37751;52.408;12.536;2022-10-29T07:58:00;16.92;;;5.63;;
51664;SDS011;37751;52.408;12.536;2022-10-29T08:00:30;17.70;;;6.03;;
51664;SDS011;37751;52.408;12.536;2022-10-29T08:03:03;16.35;;;6.50;;
51664;SDS011;37751;52.408;12.536;2022-10-29T08:05:31;21.13;;;5.68;;
51664;SDS011;37751;52.408;12.536;2022-10-29T08:07:58;15.70;;;5.70;;
51664;SDS011;37751;52.408;12.536;2022-10-29T08:10:25;18.42;;;6.80;;
51664;SDS011;37751;52.408;12.536;2022-10-29T08:12:53;18.08;;;6.30;;
51664;SDS011;37751;52.408;12.536;2022-10-29T08:15:23;20.55;;;6.95;;
51664;SDS011;37751;52.408;12.536;2022-10-29T08:17:51;21.30;;;6.25;;
51664;SDS011;37751;52.408;12.536;2022-10-29T08:20:19;32.78;;;6.18;;
51664;SDS011;37751;52.408;12.536;2022-10-29T08:22:47;23.25;;;6.13;;
51664;SDS011;37751;52.408;12.536;2022-10-29T08:25:14;20.33;;;6.18;;
51664;SDS011;37751;52.408;12.536;2022-10-29T08:27:41;19.42;;;5.93;;
51664;SDS011;37751;52.408;12.536;2022-10-29T08:30:09;20.27;;;5.82;;
51664;SDS011;37751;52.408;12.536;2022-10-29T08:32:45;20.52;;;6.40;;
51664;SDS011;37751;52.408;12.536;2022-10-29T08:35:12;19.10;;;6.05;;
51664;SDS011;37751;52.408;12.536;2022-10-29T08:37:43;25.17;;;6.68;;
51664;SDS011;37751;52.408;12.536;2022-10-29T08:49:18;18.83;;;6.13;;
51664;SDS011;37751;52.408;12.536;2022-10-29T08:51:54;30.45;;;7.60;;
51664;SDS011;37751;52.408;12.536;2022-10-29T08:54:29;20.00;;;6.35;;
51664;SDS011;37751;52.408;12.536;2022-10-29T08:57:02;24.63;;;6.95;;
51664;SDS011;37751;52.408;12.536;2022-10-29T08:59:36;16.05;;;5.72;;
51664;SDS011;37751;52.408;12.536;2022-10-29T09:02:13;17.00;;;6.60;;
51664;SDS011;37751;52.408;12.536;2022-10-29T09:04:42;16.60;;;6.35;;
51664;SDS011;37751;52.408;12.536;2022-10-29T09:07:32;16.33;;;6.32;;
51664;SDS011;37751;52.408;12.536;2022-10-29T09:10:14;22.60;;;5.88;;
51664;SDS011;37751;52.408;12.536;2022-10-29T09:18:33;20.63;;;6.38;;
51664;SDS011;37751;52.408;12.536;2022-10-29T09:21:28;24.80;;;6.78;;
51664;SDS011;37751;52.408;12.536;2022-10-29T09:24:09;22.50;;;6.22;;
51664;SDS011;37751;52.408;12.536;2022-10-29T09:29:43;19.83;;;6.20;;
51664;SDS011;37751;52.408;12.536;2022-10-29T09:32:21;18.45;;;6.05;;
51664;SDS011;37751;52.408;12.536;2022-10-29T09:34:55;19.02;;;6.15;;
51664;SDS011;37751;52.408;12.536;2022-10-29T09:37:37;19.65;;;5.75;;
51664;SDS011;37751;52.408;12.536;2022-10-29T09:40:28;22.33;;;5.60;;
51664;SDS011;37751;52.408;12.536;2022-10-29T09:42:59;21.75;;;6.05;;
51664;SDS011;37751;52.408;12.536;2022-10-29T09:45:56;20.30;;;5.95;;
51664;SDS011;37751;52.408;12.536;2022-10-29T09:49:12;22.90;;;6.25;;
51664;SDS011;37751;52.408;12.536;2022-10-29T09:52:09;20.25;;;5.78;;
51664;SDS011;37751;52.408;12.536;2022-10-29T09:54:46;17.13;;;5.32;;
51664;SDS011;37751;52.408;12.536;2022-10-29T09:57:26;18.60;;;4.75;;
51664;SDS011;37751;52.408;12.536;2022-10-29T09:59:55;15.32;;;5.40;;
51664;SDS011;37751;52.408;12.536;2022-10-29T10:02:41;19.38;;;5.85;;
51664;SDS011;37751;52.408;12.536;2022-10-29T10:08:05;16.80;;;4.53;;
51664;SDS011;37751;52.408;12.536;2022-10-29T10:10:52;20.17;;;5.05;;
51664;SDS011;37751;52.408;12.536;2022-10-29T10:13:55;23.00;;;6.22;;
51664;SDS011;37751;52.408;12.536;2022-10-29T10:16:25;18.05;;;5.97;;
51664;SDS011;37751;52.408;12.536;2022-10-29T10:18:54;16.52;;;5.63;;
51664;SDS011;37751;52.408;12.536;2022-10-29T10:21:30;19.38;;;5.35;;
51664;SDS011;37751;52.408;12.536;2022-10-29T10:23:59;16.73;;;5.55;;
51664;SDS011;37751;52.408;12.536;2022-10-29T10:26:30;17.98;;;6.32;;
51664;SDS011;37751;52.408;12.536;2022-10-29T10:29:03;23.88;;;6.03;;
51664;SDS011;37751;52.408;12.536;2022-10-29T10:39:35;17.90;;;5.10;;
51664;SDS011;37751;52.408;12.536;2022-10-29T10:47:50;16.02;;;4.88;;
51664;SDS011;37751;52.408;12.536;2022-10-29T10:50:30;20.67;;;4.68;;
51664;SDS011;37751;52.408;12.536;2022-10-29T10:53:03;13.35;;;4.88;;
51664;SDS011;37751;52.408;12.536;2022-10-29T10:55:54;15.32;;;4.40;;
51664;SDS011;37751;52.408;12.536;2022-10-29T10:58:28;22.48;;;5.28;;
51664;SDS011;37751;52.408;12.536;2022-10-29T11:04:29;15.13;;;5.00;;
51664;SDS011;37751;52.408;12.536;2022-10-29T11:07:03;16.92;;;5.03;;
51664;SDS011;37751;52.408;12.536;2022-10-29T11:09:34;21.48;;;4.97;;
51664;SDS011;37751;52.408;12.536;2022-10-29T11:12:10;17.40;;;4.72;;
51664;SDS011;37751;52.408;12.536;2022-10-29T11:14:48;17.92;;;4.82;;
51664;SDS011;37751;52.408;12.536;2022-10-29T11:17:31;13.90;;;4.68;;
51664;SDS011;37751;52.408;12.536;2022-10-29T11:23:32;15.40;;;5.18;;
51664;SDS011;37751;52.408;12.536;2022-10-29T11:25:53;18.67;;;5.40;;
51664;SDS011;37751;52.408;12.536;2022-10-29T11:34:02;20.85;;;4.93;;
51664;SDS011;37751;52.408;12.536;2022-10-29T11:36:55;15.57;;;5.30;;
51664;SDS011;37751;52.408;12.536;2022-10-29T11:39:41;14.48;;;4.82;;
51664;SDS011;37751;52.408;12.536;2022-10-29T11:42:16;22.15;;;4.78;;
51664;SDS011;37751;52.408;12.536;2022-10-29T11:44:43;18.88;;;5.05;;
51664;SDS011;37751;52.408;12.536;2022-10-29T11:50:15;13.02;;;5.00;;
51664;SDS011;37751;52.408;12.536;2022-10-29T11:53:13;26.80;;;5.07;;
51664;SDS011;37751;52.408;12.536;2022-10-29T11:55:57;16.45;;;5.13;;
51664;SDS011;37751;52.408;12.536;2022-10-29T11:58:44;18.05;;;5.90;;
51664;SDS011;37751;52.408;12.536;2022-10-29T12:01:28;26.73;;;5.85;;
51664;SDS011;37751;52.408;12.536;2022-10-29T12:04:26;17.85;;;6.25;;
51664;SDS011;37751;52.408;12.536;2022-10-29T12:07:09;20.10;;;5.28;;
51664;SDS011;37751;52.408;12.536;2022-10-29T12:15:30;19.77;;;5.32;;
51664;SDS011;37751;52.408;12.536;2022-10-29T12:19:11;16.30;;;5.15;;
51664;SDS011;37751;52.408;12.536;2022-10-29T12:21:53;17.42;;;5.20;;
51664;SDS011;37751;52.408;12.536;2022-10-29T12:25:06;25.85;;;6.13;;
51664;SDS011;37751;52.408;12.536;2022-10-29T12:30:11;26.17;;;5.43;;
51664;SDS011;37751;52.408;12.536;2022-10-29T12:32:53;21.25;;;5.18;;
51664;SDS011;37751;52.408;12.536;2022-10-29T12:38:54;23.10;;;5.60;;
51664;SDS011;37751;52.408;12.536;2022-10-29T12:41:23;18.27;;;5.40;;
51664;SDS011;37751;52.408;12.536;2022-10-29T12:44:02;26.08;;;5.97;;
51664;SDS011;37751;52.408;12.536;2022-10-29T12:47:10;18.25;;;6.10;;
51664;SDS011;37751;52.408;12.536;2022-10-29T12:49:51;15.02;;;4.85;;
51664;SDS011;37751;52.408;12.536;2022-10-29T12:55:19;19.30;;;6.05;;
51664;SDS011;37751;52.408;12.536;2022-10-29T12:57:46;23.55;;;6.35;;
51664;SDS011;37751;52.408;12.536;2022-10-29T13:02:50;24.55;;;5.85;;
51664;SDS011;37751;52.408;12.536;2022-10-29T13:05:38;21.33;;;5.63;;
51664;SDS011;37751;52.408;12.536;2022-10-29T13:08:10;22.55;;;5.65;;
51664;SDS011;37751;52.408;12.536;2022-10-29T13:10:47;24.27;;;6.35;;
51664;SDS011;37751;52.408;12.536;2022-10-29T13:13:19;15.65;;;6.40;;
51664;SDS011;37751;52.408;12.536;2022-10-29T13:16:02;18.08;;;6.55;;
51664;SDS011;37751;52.408;12.536;2022-10-29T13:18:50;24.95;;;7.40;;
51664;SDS011;37751;52.408;12.536;2022-10-29T13:24:26;28.02;;;6.90;;
51664;SDS011;37751;52.408;12.536;2022-10-29T13:29:44;26.25;;;6.15;;
51664;SDS011;37751;52.408;12.536;2022-10-29T13:32:33;15.90;;;6.22;;
51664;SDS011;37751;52.408;12.536;2022-10-29T13:35:14;22.17;;;5.93;;
51664;SDS011;37751;52.408;12.536;2022-10-29T13:37:48;24.80;;;6.40;;
51664;SDS011;37751;52.408;12.536;2022-10-29T13:43:13;20.08;;;5.85;;
51664;SDS011;37751;52.408;12.536;2022-10-29T13:45:58;15.30;;;5.45;;
51664;SDS011;37751;52.408;12.536;2022-10-29T13:48:46;16.05;;;5.68;;
51664;SDS011;37751;52.408;12.536;2022-10-29T13:51:15;30.85;;;6.30;;
51664;SDS011;37751;52.408;12.536;2022-10-29T13:54:00;25.60;;;6.20;;
51664;SDS011;37751;52.408;12.536;2022-10-29T13:56:45;17.02;;;6.22;;
51664;SDS011;37751;52.408;12.536;2022-10-29T13:59:20;22.70;;;6.22;;
51664;SDS011;37751;52.408;12.536;2022-10-29T14:01:57;20.35;;;6.43;;
51664;SDS011;37751;52.408;12.536;2022-10-29T14:04:39;25.88;;;7.32;;
51664;SDS011;37751;52.408;12.536;2022-10-29T14:07:13;21.77;;;5.85;;
51664;SDS011;37751;52.408;12.536;2022-10-29T14:09:48;20.50;;;5.50;;
51664;SDS011;37751;52.408;12.536;2022-10-29T14:12:21;22.85;;;6.85;;
51664;SDS011;37751;52.408;12.536;2022-10-29T14:17:31;33.45;;;6.25;;
51664;SDS011;37751;52.408;12.536;2022-10-29T14:19:58;36.42;;;6.78;;
51664;SDS011;37751;52.408;12.536;2022-10-29T14:25:25;12.30;;;5.25;;
51664;SDS011;37751;52.408;12.536;2022-10-29T14:30:44;21.92;;;5.55;;
51664;SDS011;37751;52.408;12.536;2022-10-29T14:33:23;28.98;;;7.07;;
51664;SDS011;37751;52.408;12.536;2022-10-29T14:35:54;22.25;;;6.80;;
51664;SDS011;37751;52.408;12.536;2022-10-29T14:38:35;24.40;;;7.22;;
51664;SDS011;37751;52.408;12.536;2022-10-29T14:41:08;21.85;;;7.10;;
51664;SDS011;37751;52.408;12.536;2022-10-29T14:43:36;29.02;;;8.05;;
51664;SDS011;37751;52.408;12.536;2022-10-29T14:46:08;25.05;;;7.35;;
51664;SDS011;37751;52.408;12.536;2022-10-29T14:48:45;21.25;;;6.97;;
51664;SDS011;37751;52.408;12.536;2022-10-29T14:51:23;23.38;;;6.97;;
51664;SDS011;37751;52.408;12.536;2022-10-29T14:53:55;20.40;;;6.85;;
51664;SDS011;37751;52.408;12.536;2022-10-29T14:56:31;20.35;;;7.10;;
51664;SDS011;37751;52.408;12.536;2022-10-29T14:59:02;24.52;;;7.45;;
51664;SDS011;37751;52.408;12.536;2022-10-29T15:01:48;20.02;;;6.63;;
51664;SDS011;37751;52.408;12.536;2022-10-29T15:04:27;28.15;;;7.13;;
51664;SDS011;37751;52.408;12.536;2022-10-29T15:07:12;26.90;;;7.97;;
51664;SDS011;37751;52.408;12.536;2022-10-29T15:10:03;31.02;;;8.40;;
51664;SDS011;37751;52.408;12.536;2022-10-29T15:12:49;24.27;;;7.13;;
51664;SDS011;37751;52.408;12.536;2022-10-29T15:23:14;21.02;;;7.05;;
51664;SDS011;37751;52.408;12.536;2022-10-29T15:25:45;25.15;;;7.93;;
51664;SDS011;37751;52.408;12.536;2022-10-29T15:28:22;27.88;;;7.32;;
51664;SDS011;37751;52.408;12.536;2022-10-29T15:30:52;17.25;;;5.93;;
51664;SDS011;37751;52.408;12.536;2022-10-29T15:33:20;25.48;;;6.72;;
51664;SDS011;37751;52.408;12.536;2022-10-29T15:35:52;14.50;;;6.60;;
51664;SDS011;37751;52.408;12.536;2022-10-29T15:43:33;28.27;;;6.70;;
51664;SDS011;37751;52.408;12.536;2022-10-29T15:46:27;24.50;;;6.68;;
51664;SDS011;37751;52.408;12.536;2022-10-29T15:49:15;22.55;;;6.93;;
51664;SDS011;37751;52.408;12.536;2022-10-29T15:51:42;34.38;;;8.10;;
51664;SDS011;37751;52.408;12.536;2022-10-29T15:54:09;17.33;;;6.70;;
51664;SDS011;37751;52.408;12.536;2022-10-29T15:56:41;31.15;;;7.95;;
51664;SDS011;37751;52.408;12.536;2022-10-29T15:59:09;16.15;;;7.85;;
51664;SDS011;37751;52.408;12.536;2022-10-29T16:01:38;34.67;;;9.02;;
51664;SDS011;37751;52.408;12.536;2022-10-29T16:04:06;33.15;;;9.23;;
51664;SDS011;37751;52.408;12.536;2022-10-29T16:06:33;32.28;;;10.40;;
51664;SDS011;37751;52.408;12.536;2022-10-29T16:09:00;25.08;;;9.13;;
51664;SDS011;37751;52.408;12.536;2022-10-29T16:11:27;28.80;;;9.82;;
51664;SDS011;37751;52.408;12.536;2022-10-29T16:13:54;24.23;;;10.07;;
51664;SDS011;37751;52.408;12.536;2022-10-29T16:16:21;28.15;;;10.77;;
51664;SDS011;37751;52.408;12.536;2022-10-29T16:18:50;28.92;;;13.50;;
51664;SDS011;37751;52.408;12.536;2022-10-29T16:21:22;29.75;;;12.27;;
51664;SDS011;37751;52.408;12.536;2022-10-29T16:23:51;36.65;;;12.48;;
51664;SDS011;37751;52.408;12.536;2022-10-29T16:26:19;28.92;;;10.82;;
51664;SDS011;37751;52.408;12.536;2022-10-29T16:28:48;33.85;;;12.73;;
51664;SDS011;37751;52.408;12.536;2022-10-29T16:31:18;32.90;;;11.93;;
51664;SDS011;37751;52.408;12.536;2022-10-29T16:33:51;39.67;;;13.95;;
51664;SDS011;37751;52.408;12.536;2022-10-29T16:36:21;34.15;;;13.38;;
51664;SDS011;37751;52.408;12.536;2022-10-29T16:38:49;35.28;;;14.43;;
51664;SDS011;37751;52.408;12.536;2022-10-29T16:41:16;38.50;;;14.95;;
51664;SDS011;37751;52.408;12.536;2022-10-29T16:43:45;29.90;;;16.60;;
51664;SDS011;37751;52.408;12.536;2022-10-29T16:46:12;38.85;;;15.15;;
51664;SDS011;37751;52.408;12.536;2022-10-29T16:48:40;36.78;;;17.25;;
51664;SDS011;37751;52.408;12.536;2022-10-29T16:51:06;49.95;;;19.67;;
51664;SDS011;37751;52.408;12.536;2022-10-29T16:53:33;54.42;;;21.50;;